Share

Boron, CA (93596)

Edwards AFB North Base (K9L2) Elev 2300 ft | 34.99 °N, 117.86 °W | Change Station

Current weather conditions updated 7 minutes ago

Clear
Clear
77 °F
Feels Like 77 °F
N
4
Wind Variable Wind from SE
Sunrise 6:12 AM
Sunset 7:27 PM
Moon Waning Gibbous

Today is forecast to be Warmer than yesterday.

Pressure 30.02 in
Visibility 10.0 miles
Clouds Clear
Dew Point 30 °F
Humidity 18%
Rainfall 0.00 in
Snow Depth Not available.
UV 11 out of 16
Pollen 8.10 out of 12
Air Quality Not available.
Flu Activity Sporadic
METAR K9L2 201855Z AUTO 13003KT 10SM CLR 25/M01 A3006 RMK AO2 SLP165 T02501011 $

More Conditions Fewer Conditions

Pressure 30.02 in
Visibility 10.0 miles
Clouds Clear
Dew Point 30 °F
Humidity 18%
Rainfall 0.00 in
Snow Depth Not available.
UV 11 out of 16
Pollen 8.10 out of 12
Air Quality Not available.
Flu Activity Sporadic
METAR K9L2 201855Z AUTO 13003KT 10SM CLR 25/M01 A3006 RMK AO2 SLP165 T02501011 $

More Conditions Fewer Conditions

10-Day Weather Forecast

Almanac

Astronomy

Apr. 20, 2014 Rise Set
Actual Time 6:12 AM PDT 7:27 PM PDT
Civil Twilight 5:45 AM PDT 7:53 PM PDT
Nautical Twilight 5:14 AM PDT 8:25 PM PDT
Astronomical Twilight 4:41 AM PDT 8:57 PM PDT
Moon 12:06 AM PDT 10:42 AM PDT
Length of Visible Light 14h 07m
Length of Day
13h 15m
Tomorrow will be 2m 1s longer.
Waning Gibbous, 67% of the Moon is Illuminated
Today
Waning Gibbous
Apr 22
Last Quarter
Apr 29
New
May 6
First Quarter
May 14
Full

Today's Extremes

State Highs State Lows

Community

  • Morning Sun
    Morning Sun
  • Columbine
    Columbine
  • Easter Sunrise
    Easter Sunrise
  • Easter Eve - The Promise - Lake Palestine, TX
    Easter Eve - The Promise - Lake Palestine, TX
  • Happy Easter
    Happy Easter

WunderPhotos

Upload Photos

1,703,311 photos uploaded!

WunderBlogs® & News

Nearby

Air Quality

  Air Quality AQ Index Pollutant
Sunday Good
PM10
Sunday Good
OZONE
Sunday Good
CO
Sunday Good
NO2

Snow Depth

Station Depth Elevation
Virginia Lakes Ridge 17 in 9200 ft
Leavitt Lake 63 in 9400 ft
Leavitt Meadows 0 in 7200 ft
Sonora Pass 24 in 8800 ft
Summit Meadow 5 in 9122 ft

Coastal Water Temperatures

Place Temperature
No Stations Reporting

Earthquake Activity

City Distance Mag. Time & Date
Idyllwild, California 107 miles 2.8 7:37 AM PDT
2014-04-14
Minimum magnitude displayed is 2.5.

Nearby Weather Stations

Station Location Temp. Heat Index Dew Point Humidity Wind Precip. Elev Updated Type
near R.P. Ulrich School, California City, CA 87.1 °F 84 °F 44 °F 23% NNW  at  1.6 mph 0.00 in / hr 2350 ft 12:02 PM PDT Rapid Fire
Bookman Ranch, Lancaster, CA 79.2 °F 78 °F 32 °F 18% NNW  at  7.0 mph 0.00 in / hr 2405 ft 11:53 AM PDT Normal

Show More Stations Show Fewer Stations

What do you think?

We're not finished. Please let us know what you like, what you don't like, and what you are still missing.